Time;durP1;ratioP1;P1;durP2;ratioP2;P2;SDS_P1;SDS_P2;PMS_P1;PMS_P2;Temp;Humidity;BMP_temperature;BMP_pressure;BME280_temperature;BME280_humidity;BME280_pressure;Samples;Min_cycle;Max_cycle;Signal;HPM_P1;HPM_P2
2021/06/06 00:01:27;;;;;;;15.90;14.50;;;20.70;1.00;;;;;;5093690;28;20635;-59
2021/06/06 00:03:57;;;;;;;12.97;11.93;;;20.70;1.00;;;;;;5112328;28;20513;-58
2021/06/06 00:06:32;;;;;;;14.73;13.53;;;20.70;1.00;;;;;;5112086;28;21052;-58
2021/06/06 00:09:00;;;;;;;14.63;13.47;;;20.70;1.00;;;;;;5110706;28;20447;-58
2021/06/06 00:11:32;;;;;;;14.50;13.20;;;20.70;1.00;;;;;;5111147;28;20463;-57
2021/06/06 00:14:02;;;;;;;15.57;14.27;;;20.60;1.00;;;;;;5112804;28;21139;-57
2021/06/06 00:16:31;;;;;;;14.57;13.40;;;20.60;1.00;;;;;;5107368;27;20780;-58
2021/06/06 00:18:58;;;;;;;15.50;14.17;;;20.60;1.00;;;;;;5112672;28;20445;-58
2021/06/06 00:21:25;;;;;;;14.80;13.60;;;20.60;1.00;;;;;;5110369;28;20954;-58
2021/06/06 00:23:53;;;;;;;15.13;13.83;;;20.50;1.00;;;;;;5111179;28;20459;-57
2021/06/06 00:26:19;;;;;;;13.90;12.80;;;20.60;1.00;;;;;;5110981;28;20477;-57
2021/06/06 00:28:45;;;;;;;13.70;12.57;;;20.60;1.00;;;;;;5087652;28;20419;-57
2021/06/06 00:31:11;;;;;;;14.40;13.20;;;20.60;1.00;;;;;;5110822;28;20766;-58
2021/06/06 00:33:38;;;;;;;16.17;14.47;;;20.50;1.00;;;;;;5108987;28;20749;-58
2021/06/06 00:36:06;;;;;;;14.57;13.37;;;20.40;1.00;;;;;;5111006;28;20442;-57
2021/06/06 00:38:31;;;;;;;15.57;14.27;;;20.40;1.00;;;;;;5102470;28;20841;-57
2021/06/06 00:40:58;;;;;;;15.77;14.37;;;20.40;1.00;;;;;;5110386;28;20482;-58
2021/06/06 00:43:25;;;;;;;15.10;13.90;;;20.30;1.00;;;;;;5085074;28;20190;-58
2021/06/06 00:45:51;;;;;;;14.07;12.80;;;20.30;1.00;;;;;;5112175;28;20464;-57
2021/06/06 00:48:17;;;;;;;15.30;14.03;;;20.20;1.00;;;;;;5107611;28;20447;-57
2021/06/06 00:50:48;;;;;;;14.67;13.43;;;20.20;1.00;;;;;;5112108;28;20174;-59
2021/06/06 00:53:34;;;;;;;15.57;14.20;;;20.20;1.00;;;;;;5111617;28;20439;-57
2021/06/06 00:56:02;;;;;;;13.57;12.37;;;20.30;1.00;;;;;;5111170;28;20440;-58
2021/06/06 00:58:27;;;;;;;14.80;13.63;;;20.30;1.00;;;;;;5104999;28;20954;-57
2021/06/06 01:00:53;;;;;;;14.77;13.57;;;20.20;1.00;;;;;;5106551;28;20452;-58
2021/06/06 01:03:25;;;;;;;14.93;13.73;;;20.30;1.00;;;;;;5107769;28;20177;-57
2021/06/06 01:06:07;;;;;;;14.43;13.13;;;20.30;1.00;;;;;;5111906;28;20488;-58
2021/06/06 01:08:33;;;;;;;14.73;13.40;;;20.20;1.00;;;;;;5110144;28;20789;-57
2021/06/06 01:11:29;;;;;;;14.00;12.90;;;20.10;1.00;;;;;;5111914;28;20443;-57
2021/06/06 01:14:06;;;;;;;13.13;12.13;;;20.10;1.00;;;;;;5106943;28;20265;-58
2021/06/06 01:16:41;;;;;;;13.93;12.77;;;20.10;1.00;;;;;;5109677;28;20439;-59
2021/06/06 01:19:14;;;;;;;15.60;14.20;;;20.00;1.00;;;;;;5111437;28;20452;-57
2021/06/06 01:21:50;;;;;;;13.37;12.20;;;20.10;1.00;;;;;;5108454;28;20444;-57
2021/06/06 01:24:22;;;;;;;15.00;13.50;;;20.00;1.00;;;;;;5110852;28;20424;-57
2021/06/06 01:27:07;;;;;;;15.97;14.47;;;20.00;1.00;;;;;;5111231;28;20446;-58
2021/06/06 01:29:37;;;;;;;15.37;13.80;;;20.00;1.00;;;;;;5092661;28;20440;-57
2021/06/06 01:32:15;;;;;;;14.97;13.77;;;19.90;1.00;;;;;;5107485;28;20935;-58
2021/06/06 01:34:44;;;;;;;14.50;13.30;;;19.90;1.00;;;;;;5110559;28;20402;-58
2021/06/06 01:37:13;;;;;;;14.77;13.57;;;19.80;1.00;;;;;;5110518;28;20446;-58
2021/06/06 01:39:46;;;;;;;16.50;15.10;;;19.70;1.00;;;;;;5110973;28;20409;-58
2021/06/06 01:42:21;;;;;;;17.23;15.93;;;19.60;1.00;;;;;;5109092;27;20552;-59
2021/06/06 01:44:49;;;;;;;16.93;15.53;;;19.70;1.00;;;;;;5110495;28;20439;-57
2021/06/06 01:47:19;;;;;;;17.03;15.53;;;19.70;1.00;;;;;;5091278;28;20468;-58
2021/06/06 01:49:50;;;;;;;15.20;14.00;;;19.70;1.00;;;;;;5109725;28;20446;-58
2021/06/06 01:52:17;;;;;;;16.17;14.60;;;19.80;1.00;;;;;;5109461;28;20440;-57
2021/06/06 01:54:45;;;;;;;15.73;14.43;;;19.80;1.00;;;;;;5109600;28;20436;-57
2021/06/06 01:57:16;;;;;;;15.53;14.23;;;19.90;1.00;;;;;;5110316;28;20794;-57
2021/06/06 01:59:47;;;;;;;16.13;14.80;;;20.00;1.00;;;;;;5110164;28;20443;-57
2021/06/06 02:02:13;;;;;;;15.57;14.20;;;20.10;1.00;;;;;;5109500;28;20904;-58
2021/06/06 02:04:39;;;;;;;16.30;15.00;;;20.10;1.00;;;;;;5110404;28;20445;-58
2021/06/06 02:07:22;;;;;;;16.10;14.70;;;20.10;1.00;;;;;;5109087;28;20960;-57
2021/06/06 02:09:58;;;;;;;17.00;15.50;;;20.10;1.00;;;;;;5107570;28;20443;-58
2021/06/06 02:12:28;;;;;;;17.30;15.80;;;20.30;1.00;;;;;;5109842;28;20485;-57
2021/06/06 02:14:54;;;;;;;18.00;16.40;;;20.30;1.00;;;;;;5110538;28;20571;-57
2021/06/06 02:17:30;;;;;;;16.20;14.73;;;20.30;1.00;;;;;;5110261;28;20436;-57
2021/06/06 02:19:57;;;;;;;16.27;14.87;;;20.20;1.00;;;;;;5109607;28;20790;-58
2021/06/06 02:22:23;;;;;;;16.63;15.30;;;20.30;1.00;;;;;;5110052;28;20938;-59
2021/06/06 02:24:49;;;;;;;16.23;14.93;;;20.20;1.00;;;;;;5110103;28;20442;-58
2021/06/06 02:27:25;;;;;;;16.73;15.27;;;20.20;1.00;;;;;;5108637;28;20553;-57
2021/06/06 02:30:11;;;;;;;17.37;15.27;;;20.10;1.00;;;;;;5108330;28;20436;-56
2021/06/06 02:33:00;;;;;;;15.60;14.20;;;20.10;1.00;;;;;;5109041;28;20445;-58
2021/06/06 02:36:03;;;;;;;15.87;14.47;;;20.10;1.00;;;;;;5110695;28;20446;-57
2021/06/06 02:38:57;;;;;;;16.43;14.83;;;20.00;1.00;;;;;;5056395;28;20935;-57
2021/06/06 02:41:33;;;;;;;15.37;14.00;;;20.00;1.00;;;;;;5104431;28;20831;-58
2021/06/06 02:44:06;;;;;;;15.80;14.40;;;19.90;1.00;;;;;;5106063;27;20471;-57
2021/06/06 02:46:34;;;;;;;15.40;14.10;;;20.00;1.00;;;;;;5113995;28;20553;-57
2021/06/06 02:49:11;;;;;;;16.90;15.40;;;20.00;1.00;;;;;;5095762;28;20440;-58
2021/06/06 02:51:47;;;;;;;17.67;16.10;;;20.00;1.00;;;;;;5113854;28;20459;-58
2021/06/06 02:54:21;;;;;;;15.67;14.17;;;20.10;1.00;;;;;;5114092;28;20431;-58
2021/06/06 02:56:51;;;;;;;15.80;14.47;;;20.00;1.00;;;;;;5113868;28;20443;-57
2021/06/06 02:59:19;;;;;;;15.57;14.27;;;20.10;1.00;;;;;;5106084;28;20541;-57
2021/06/06 03:01:52;;;;;;;17.50;15.97;;;20.10;1.00;;;;;;5113894;28;20442;-57
2021/06/06 03:04:21;;;;;;;16.93;15.43;;;20.10;1.00;;;;;;5112750;28;20801;-59
2021/06/06 03:06:57;;;;;;;15.73;14.23;;;20.10;1.00;;;;;;5108861;28;20566;-57
2021/06/06 03:09:23;;;;;;;18.07;16.37;;;20.20;1.00;;;;;;5112833;28;20784;-58
2021/06/06 03:11:52;;;;;;;18.00;16.40;;;20.30;1.00;;;;;;5112897;28;20458;-57
2021/06/06 03:14:20;;;;;;;17.17;15.57;;;20.20;1.00;;;;;;5113829;28;20427;-57
2021/06/06 03:17:14;;;;;;;16.97;15.47;;;20.20;1.00;;;;;;5112230;28;20588;-58
2021/06/06 03:19:44;;;;;;;17.13;15.57;;;20.10;1.00;;;;;;5109014;28;20943;-57
2021/06/06 03:22:15;;;;;;;16.80;15.23;;;20.10;1.00;;;;;;5112775;28;20512;-58
2021/06/06 03:24:47;;;;;;;17.60;16.00;;;20.10;1.00;;;;;;5110751;28;21052;-58
2021/06/06 03:27:16;;;;;;;17.17;15.67;;;20.30;1.00;;;;;;5113386;28;20470;-57
2021/06/06 03:29:54;;;;;;;17.50;15.80;;;20.30;1.00;;;;;;5113267;28;20443;-57
2021/06/06 03:32:25;;;;;;;16.20;14.80;;;20.30;1.00;;;;;;5110952;28;21468;-58
2021/06/06 03:34:51;;;;;;;16.83;15.13;;;20.30;1.00;;;;;;5112728;28;20446;-58
2021/06/06 03:37:18;;;;;;;16.97;15.37;;;20.20;1.00;;;;;;5094049;28;20458;-58
2021/06/06 03:39:43;;;;;;;16.10;14.80;;;20.10;1.00;;;;;;5112927;28;20443;-57
2021/06/06 03:42:09;;;;;;;16.97;15.57;;;20.10;1.00;;;;;;5110742;28;20487;-58
2021/06/06 03:44:35;;;;;;;15.77;14.33;;;20.20;1.00;;;;;;5112311;28;20298;-57
2021/06/06 03:47:01;;;;;;;18.23;16.63;;;20.30;1.00;;;;;;5108452;28;20972;-59
2021/06/06 03:49:27;;;;;;;16.87;15.13;;;20.40;1.00;;;;;;5111754;28;20592;-57
2021/06/06 03:51:52;;;;;;;17.00;15.40;;;20.50;1.00;;;;;;5094970;28;20227;-57
2021/06/06 03:54:18;;;;;;;17.90;16.20;;;20.50;1.00;;;;;;5113095;28;20796;-58
2021/06/06 03:56:47;;;;;;;17.00;15.47;;;20.30;1.00;;;;;;5112869;28;20261;-58
2021/06/06 03:59:14;;;;;;;16.87;15.37;;;20.40;1.00;;;;;;5110682;28;20447;-57
2021/06/06 04:01:41;;;;;;;16.87;15.37;;;20.60;1.00;;;;;;5105636;28;20475;-57
2021/06/06 04:04:07;;;;;;;18.20;16.60;;;20.50;1.00;;;;;;5090168;28;20879;-58
2021/06/06 04:06:33;;;;;;;18.70;16.70;;;20.60;1.00;;;;;;5110569;28;20547;-58
2021/06/06 04:08:59;;;;;;;18.63;16.93;;;20.70;1.00;;;;;;5111078;28;20467;-57
2021/06/06 04:11:24;;;;;;;17.10;15.53;;;20.80;1.00;;;;;;5110023;28;20209;-58
2021/06/06 04:13:51;;;;;;;16.70;15.27;;;20.80;1.00;;;;;;5110359;28;20857;-57
2021/06/06 04:16:17;;;;;;;17.10;15.60;;;20.90;1.00;;;;;;5110010;28;20647;-57
2021/06/06 04:18:43;;;;;;;17.10;15.60;;;21.00;1.00;;;;;;5110778;28;20527;-57
2021/06/06 04:21:13;;;;;;;16.60;14.90;;;21.20;1.00;;;;;;5107665;28;20458;-58
2021/06/06 04:23:39;;;;;;;17.30;15.80;;;21.20;1.00;;;;;;5111211;28;20397;-57
2021/06/06 04:26:05;;;;;;;19.13;17.13;;;21.30;1.00;;;;;;5110871;28;20471;-57
2021/06/06 04:28:32;;;;;;;17.80;16.20;;;21.20;1.00;;;;;;5110965;28;20444;-57
2021/06/06 04:30:58;;;;;;;17.70;16.00;;;21.20;1.00;;;;;;5109934;28;20440;-57
2021/06/06 04:33:24;;;;;;;16.73;15.23;;;21.40;1.00;;;;;;5092371;28;20542;-58
2021/06/06 04:35:50;;;;;;;17.23;15.73;;;21.40;1.00;;;;;;5110214;28;20647;-57
2021/06/06 04:38:21;;;;;;;17.67;16.07;;;21.50;1.00;;;;;;5093795;28;20454;-57
2021/06/06 04:40:47;;;;;;;18.13;16.60;;;21.50;1.00;;;;;;5110818;28;20452;-58
2021/06/06 04:43:13;;;;;;;17.03;15.53;;;21.40;1.00;;;;;;5109220;28;20439;-57
2021/06/06 04:45:39;;;;;;;16.90;15.50;;;21.20;1.00;;;;;;5109892;28;20477;-57
2021/06/06 04:48:16;;;;;;;17.27;15.73;;;21.40;1.00;;;;;;5108665;28;20201;-57
2021/06/06 04:50:43;;;;;;;17.53;15.93;;;21.50;1.00;;;;;;5103822;28;20530;-57
2021/06/06 04:53:09;;;;;;;17.17;15.67;;;21.40;1.00;;;;;;5105659;28;20435;-57
2021/06/06 04:55:35;;;;;;;18.07;16.40;;;21.40;1.00;;;;;;5106314;28;20448;-58
2021/06/06 04:58:00;;;;;;;17.50;16.10;;;21.50;1.00;;;;;;5108562;28;20186;-57
2021/06/06 05:00:28;;;;;;;18.83;17.10;;;21.50;1.00;;;;;;5109876;28;20949;-58
2021/06/06 05:02:54;;;;;;;18.10;16.50;;;21.60;1.00;;;;;;5090394;28;20186;-57
2021/06/06 05:05:20;;;;;;;16.63;15.23;;;21.70;1.00;;;;;;5108576;28;20582;-57
2021/06/06 05:07:59;;;;;;;18.10;16.60;;;21.80;1.00;;;;;;5094160;28;20186;-57
2021/06/06 05:10:26;;;;;;;16.10;14.70;;;23.10;1.00;;;;;;5109985;28;20439;-59
2021/06/06 05:12:51;;;;;;;16.80;15.40;;;22.00;1.00;;;;;;5107835;28;20489;-58
2021/06/06 05:15:19;;;;;;;17.23;15.80;;;22.00;1.00;;;;;;5108823;28;20414;-57
2021/06/06 05:17:45;;;;;;;16.10;14.63;;;21.90;1.00;;;;;;5109112;28;20213;-58
2021/06/06 05:20:12;;;;;;;16.67;15.37;;;22.10;1.00;;;;;;5108388;28;20414;-58
2021/06/06 05:22:38;;;;;;;17.40;15.83;;;22.40;1.00;;;;;;5109959;28;21312;-58
2021/06/06 05:25:05;;;;;;;15.93;14.53;;;22.60;1.00;;;;;;5109790;28;20447;-57
2021/06/06 05:27:30;;;;;;;15.70;14.40;;;22.70;1.00;;;;;;5106137;28;20435;-58
2021/06/06 05:29:56;;;;;;;17.00;15.50;;;22.80;1.00;;;;;;5110440;28;20932;-57
2021/06/06 05:32:22;;;;;;;15.20;14.00;;;22.70;1.00;;;;;;5109192;28;20186;-59
2021/06/06 05:34:47;;;;;;;15.83;14.53;;;22.80;1.00;;;;;;5108121;28;20174;-57
2021/06/06 05:37:13;;;;;;;16.03;14.70;;;22.90;1.00;;;;;;5109007;28;20548;-59
2021/06/06 05:39:40;;;;;;;15.47;13.97;;;23.10;1.00;;;;;;5109782;28;20946;-58
2021/06/06 05:42:07;;;;;;;14.93;13.73;;;23.40;1.00;;;;;;5088530;28;20629;-57
2021/06/06 05:44:33;;;;;;;14.20;13.00;;;23.70;1.00;;;;;;5087292;28;20460;-57
2021/06/06 05:46:58;;;;;;;13.50;12.23;;;23.80;1.00;;;;;;5087008;28;20830;-58
2021/06/06 05:49:24;;;;;;;12.80;11.80;;;23.90;1.00;;;;;;5088212;28;20270;-58
2021/06/06 05:51:49;;;;;;;14.87;13.67;;;24.10;1.00;;;;;;5089416;28;20193;-57
2021/06/06 05:54:15;;;;;;;14.67;13.57;;;24.20;1.00;;;;;;5088704;28;20559;-58
2021/06/06 05:56:42;;;;;;;14.80;13.60;;;24.20;1.00;;;;;;5088416;28;20262;-57
2021/06/06 05:59:08;;;;;;;13.90;12.90;;;24.30;1.00;;;;;;5086441;28;20596;-58
2021/06/06 06:01:33;;;;;;;14.03;12.83;;;24.40;1.00;;;;;;5087572;28;20535;-57
2021/06/06 06:03:59;;;;;;;16.13;14.77;;;24.50;1.00;;;;;;5086466;28;20282;-57
2021/06/06 06:06:24;;;;;;;14.80;13.70;;;24.40;1.00;;;;;;5088065;28;20210;-59
2021/06/06 06:08:50;;;;;;;14.63;13.43;;;24.50;1.00;;;;;;5088913;28;20187;-57
2021/06/06 06:11:18;;;;;;;15.57;14.27;;;24.40;1.00;;;;;;5089111;28;20715;-58
2021/06/06 06:13:46;;;;;;;15.43;14.13;;;24.30;1.00;;;;;;5088999;28;20182;-57
2021/06/06 06:16:13;;;;;;;15.03;13.83;;;24.40;1.00;;;;;;5087918;28;20423;-56
2021/06/06 06:18:39;;;;;;;14.20;13.10;;;24.30;1.00;;;;;;5086341;28;20426;-58
2021/06/06 06:21:08;;;;;;;15.30;14.10;;;24.40;1.00;;;;;;5089087;28;20803;-58
2021/06/06 06:23:34;;;;;;;16.37;14.80;;;24.30;1.00;;;;;;5087782;28;20448;-57
2021/06/06 06:26:00;;;;;;;16.20;14.80;;;24.30;1.00;;;;;;5087294;28;20496;-57
2021/06/06 06:28:26;;;;;;;16.43;15.00;;;24.50;1.00;;;;;;5083824;28;20452;-58
2021/06/06 06:30:52;;;;;;;17.37;15.87;;;24.50;1.00;;;;;;5088303;28;20422;-57
2021/06/06 06:33:18;;;;;;;17.43;15.93;;;24.40;1.00;;;;;;5089063;28;20240;-57
2021/06/06 06:35:44;;;;;;;16.73;15.40;;;24.30;1.00;;;;;;5086749;28;20453;-59
2021/06/06 06:38:10;;;;;;;16.20;14.80;;;24.30;1.00;;;;;;5088582;28;20423;-58
2021/06/06 06:40:36;;;;;;;16.30;14.97;;;24.50;1.00;;;;;;5086683;28;20192;-58
2021/06/06 06:43:04;;;;;;;15.90;14.57;;;24.30;1.00;;;;;;5104834;28;20194;-58
2021/06/06 06:45:34;;;;;;;16.83;15.53;;;24.40;1.00;;;;;;5100554;28;20474;-57
2021/06/06 06:48:04;;;;;;;16.60;15.03;;;24.50;1.00;;;;;;5108661;28;20467;-59
2021/06/06 06:50:30;;;;;;;16.50;15.23;;;24.50;1.00;;;;;;5105133;28;20457;-59
2021/06/06 06:52:57;;;;;;;15.07;13.80;;;24.70;1.00;;;;;;5073215;28;20439;-60
2021/06/06 06:55:23;;;;;;;13.87;12.57;;;25.00;1.00;;;;;;5107447;28;20487;-58
2021/06/06 06:57:49;;;;;;;15.47;14.17;;;25.00;1.00;;;;;;5107733;28;20447;-59
2021/06/06 07:00:21;;;;;;;14.83;13.73;;;25.20;1.00;;;;;;5108374;28;20418;-58
2021/06/06 07:02:47;;;;;;;14.80;13.60;;;25.40;1.00;;;;;;5108770;28;20424;-64
2021/06/06 07:05:13;;;;;;;16.50;15.20;;;25.40;1.00;;;;;;5109196;28;20414;-58
2021/06/06 07:07:39;;;;;;;15.93;14.63;;;25.10;1.00;;;;;;5103671;28;20186;-58
2021/06/06 07:10:09;;;;;;;13.47;12.33;;;24.70;1.00;;;;;;5106571;28;20518;-60
2021/06/06 07:12:37;;;;;;;13.30;12.20;;;24.80;1.00;;;;;;5103507;28;20768;-60
2021/06/06 07:15:05;;;;;;;15.10;13.77;;;25.30;1.00;;;;;;5112155;28;20457;-61
2021/06/06 07:17:31;;;;;;;16.53;15.20;;;25.40;1.00;;;;;;5103581;28;20415;-58
2021/06/06 07:19:56;;;;;;;15.17;13.80;;;25.40;1.00;;;;;;5108666;28;20806;-60
2021/06/06 07:22:22;;;;;;;14.80;13.60;;;25.40;1.00;;;;;;5097706;28;20711;-60
2021/06/06 07:24:47;;;;;;;15.10;13.90;;;25.60;1.00;;;;;;5117607;27;20663;-59
2021/06/06 07:27:13;;;;;;;15.37;14.17;;;25.50;1.00;;;;;;5114681;27;20228;-60
2021/06/06 07:29:39;;;;;;;15.60;14.20;;;25.30;1.00;;;;;;5108143;27;20178;-60
2021/06/06 07:32:05;;;;;;;15.77;14.47;;;25.30;1.00;;;;;;5109968;27;20642;-60
2021/06/06 07:34:32;;;;;;;16.63;15.30;;;25.60;1.00;;;;;;5093276;27;20181;-60
2021/06/06 07:37:05;;;;;;;15.13;13.93;;;26.10;1.00;;;;;;5088607;28;20422;-60
2021/06/06 07:39:32;;;;;;;16.03;14.40;;;26.10;1.00;;;;;;5087698;27;20563;-58
2021/06/06 07:41:59;;;;;;;15.97;14.77;;;26.10;1.00;;;;;;5112716;27;20467;-59
2021/06/06 07:44:25;;;;;;;14.87;13.67;;;26.10;1.00;;;;;;5112788;27;20435;-60
2021/06/06 07:46:51;;;;;;;16.70;15.40;;;26.00;1.00;;;;;;5106588;27;20480;-59
2021/06/06 07:49:17;;;;;;;15.40;14.10;;;26.00;1.00;;;;;;5112871;27;20409;-59
2021/06/06 07:51:43;;;;;;;14.97;13.77;;;26.00;1.00;;;;;;5113196;27;20446;-59
2021/06/06 07:54:09;;;;;;;16.77;15.30;;;25.80;1.00;;;;;;5107949;27;20218;-59
2021/06/06 07:56:35;;;;;;;15.40;14.23;;;25.60;1.00;;;;;;5108459;27;20182;-59
2021/06/06 07:59:00;;;;;;;14.73;13.57;;;25.50;1.00;;;;;;5105468;27;20449;-60
2021/06/06 08:01:26;;;;;;;15.97;14.67;;;25.30;1.00;;;;;;5108042;27;20789;-59
2021/06/06 08:03:52;;;;;;;14.83;13.63;;;25.30;1.00;;;;;;5111008;27;20239;-59
2021/06/06 08:06:19;;;;;;;15.53;14.33;;;25.40;1.00;;;;;;5101405;27;20226;-59
2021/06/06 08:08:45;;;;;;;14.40;13.30;;;25.40;1.00;;;;;;5083046;27;20183;-59
2021/06/06 08:11:11;;;;;;;14.67;13.47;;;25.60;1.00;;;;;;5108144;27;20413;-60
2021/06/06 08:13:38;;;;;;;14.53;13.43;;;25.80;1.00;;;;;;5089876;27;20186;-59
2021/06/06 08:16:05;;;;;;;15.17;13.97;;;25.90;1.00;;;;;;5110465;27;20412;-59
2021/06/06 08:18:34;;;;;;;15.37;14.10;;;26.00;1.00;;;;;;5091356;28;20447;-58
2021/06/06 08:21:19;;;;;;;14.80;13.60;;;26.10;1.00;;;;;;5110996;27;20913;-58
2021/06/06 08:23:46;;;;;;;14.60;13.50;;;26.30;1.00;;;;;;5112813;27;20416;-58
2021/06/06 08:26:14;;;;;;;13.50;12.40;;;26.20;1.00;;;;;;5101004;27;20472;-60
2021/06/06 08:28:39;;;;;;;15.10;13.33;;;26.00;1.00;;;;;;5107885;27;20451;-60
2021/06/06 08:31:09;;;;;;;12.47;11.47;;;26.10;1.00;;;;;;5107771;27;20410;-58
2021/06/06 08:33:36;;;;;;;14.23;13.13;;;26.20;1.00;;;;;;5108072;28;20438;-59
2021/06/06 08:36:12;;;;;;;14.70;13.50;;;26.50;1.00;;;;;;5108463;27;20442;-59
2021/06/06 08:38:38;;;;;;;13.43;12.33;;;26.70;1.00;;;;;;5109602;27;20508;-59
2021/06/06 08:41:09;;;;;;;13.67;12.37;;;26.70;1.00;;;;;;5111318;27;20460;-59
2021/06/06 08:43:50;;;;;;;14.40;13.10;;;26.80;1.00;;;;;;5107457;27;20475;-59
2021/06/06 08:46:17;;;;;;;14.80;13.57;;;26.90;1.00;;;;;;5104489;27;20947;-58
2021/06/06 08:48:44;;;;;;;13.33;12.10;;;26.90;1.00;;;;;;5110408;28;21107;-60
2021/06/06 08:51:28;;;;;;;14.13;13.07;;;26.80;1.00;;;;;;5109553;27;20423;-59
2021/06/06 08:54:08;;;;;;;14.53;13.33;;;26.90;1.00;;;;;;5099981;27;20444;-61
2021/06/06 08:56:36;;;;;;;13.70;12.70;;;26.90;1.00;;;;;;5101623;28;20495;-61
2021/06/06 08:59:10;;;;;;;12.90;11.87;;;26.80;1.00;;;;;;5103944;27;20570;-59
2021/06/06 09:01:51;;;;;;;12.80;11.80;;;27.00;1.00;;;;;;5108198;28;20454;-62
2021/06/06 09:04:23;;;;;;;13.73;12.77;;;27.00;1.00;;;;;;5108394;27;20428;-61
2021/06/06 09:06:55;;;;;;;14.60;13.50;;;27.30;1.00;;;;;;5100164;28;20510;-60
2021/06/06 09:09:27;;;;;;;13.23;12.07;;;27.60;1.00;;;;;;5107703;28;20956;-60
2021/06/06 09:11:56;;;;;;;12.47;11.47;;;27.60;1.00;;;;;;5086573;28;20464;-62
2021/06/06 09:14:21;;;;;;;11.60;10.67;;;27.80;1.00;;;;;;5110759;27;20743;-60
2021/06/06 09:17:01;;;;;;;10.87;10.13;;;27.90;1.00;;;;;;5110242;27;20406;-61
2021/06/06 09:19:48;;;;;;;11.63;10.73;;;28.00;1.00;;;;;;5087008;28;20286;-60
2021/06/06 09:22:28;;;;;;;10.93;10.03;;;28.20;1.00;;;;;;5110697;28;20439;-60
2021/06/06 09:24:53;;;;;;;11.47;10.50;;;28.40;1.00;;;;;;5102499;28;20430;-60
2021/06/06 09:27:22;;;;;;;10.63;9.40;;;28.60;1.00;;;;;;5110725;27;20459;-60
2021/06/06 09:30:08;;;;;;;9.57;8.87;;;28.30;1.00;;;;;;5084783;28;20193;-61
2021/06/06 09:32:34;;;;;;;10.37;9.57;;;28.20;1.00;;;;;;5108911;27;20828;-60
2021/06/06 09:35:22;;;;;;;9.47;8.77;;;28.30;1.00;;;;;;5110759;28;20440;-61
2021/06/06 09:38:09;;;;;;;8.43;7.83;;;28.70;1.00;;;;;;5103501;28;20453;-62
2021/06/06 09:40:38;;;;;;;7.93;7.33;;;28.80;1.00;;;;;;5106724;27;20421;-60
2021/06/06 09:43:04;;;;;;;7.73;7.23;;;29.00;1.00;;;;;;5082133;27;20932;-61
2021/06/06 09:45:34;;;;;;;7.90;7.30;;;28.70;1.00;;;;;;5105848;28;20470;-61
2021/06/06 09:48:15;;;;;;;7.47;6.90;;;28.20;1.00;;;;;;5085502;28;20480;-60
2021/06/06 09:50:47;;;;;;;8.10;7.53;;;27.80;1.00;;;;;;5103478;27;20937;-62
2021/06/06 09:53:29;;;;;;;8.27;7.20;;;28.40;1.00;;;;;;5102988;27;20527;-62
2021/06/06 09:56:05;;;;;;;7.30;6.70;;;28.90;1.00;;;;;;5108600;28;20434;-61
2021/06/06 09:58:34;;;;;;;7.30;6.70;;;29.00;1.00;;;;;;5086788;28;20541;-62
2021/06/06 10:01:29;;;;;;;6.60;6.17;;;28.90;1.00;;;;;;5111705;27;20982;-60
2021/06/06 10:04:02;;;;;;;7.80;7.20;;;28.50;1.00;;;;;;5093133;27;20451;-62
2021/06/06 10:06:35;;;;;;;8.80;7.47;;;28.10;1.00;;;;;;5082821;28;20806;-62
2021/06/06 10:09:12;;;;;;;7.50;6.90;;;27.90;1.00;;;;;;5098125;27;20416;-62
2021/06/06 10:12:02;;;;;;;7.07;6.57;;;28.20;1.00;;;;;;5108210;28;20432;-60
2021/06/06 10:14:51;;;;;;;8.00;7.30;;;28.40;1.00;;;;;;5099418;28;20415;-62
2021/06/06 10:17:28;;;;;;;8.23;7.60;;;28.40;1.00;;;;;;5096620;28;20460;-62
2021/06/06 10:20:05;;;;;;;7.20;6.60;;;27.80;1.00;;;;;;5111040;28;20498;-60
2021/06/06 10:22:40;;;;;;;6.33;5.83;;;27.30;1.00;;;;;;5109748;28;20479;-61
2021/06/06 10:25:11;;;;;;;6.20;5.70;;;27.00;1.00;;;;;;5106872;28;20413;-61
2021/06/06 10:27:45;;;;;;;7.20;6.60;;;26.80;1.00;;;;;;5093088;28;20444;-60
2021/06/06 10:30:31;;;;;;;7.60;6.90;;;26.70;1.00;;;;;;5108261;28;20506;-60
2021/06/06 10:33:09;;;;;;;6.33;5.73;;;26.70;1.00;;;;;;5109333;28;20447;-60
2021/06/06 10:35:34;;;;;;;6.97;6.10;;;26.70;1.00;;;;;;5108307;28;20505;-61
2021/06/06 10:38:00;;;;;;;6.80;6.30;;;26.60;1.00;;;;;;5108024;28;20406;-62
2021/06/06 10:40:34;;;;;;;5.70;5.30;;;26.90;1.00;;;;;;5099064;28;20182;-60
2021/06/06 10:43:07;;;;;;;5.90;5.50;;;27.00;1.00;;;;;;5080101;28;20266;-60
2021/06/06 10:46:00;;;;;;;5.90;5.33;;;27.10;1.00;;;;;;5084894;28;20479;-61
2021/06/06 10:48:31;;;;;;;6.43;5.60;;;27.50;1.00;;;;;;5062008;28;20430;-61
2021/06/06 10:51:36;;;;;;;5.83;5.30;;;27.90;1.00;;;;;;5101979;28;20437;-62
2021/06/06 10:54:21;;;;;;;6.07;5.23;;;28.50;1.00;;;;;;5101956;28;20406;-62
2021/06/06 10:56:46;;;;;;;5.93;5.40;;;28.70;1.00;;;;;;5097898;27;21043;-62
2021/06/06 10:59:12;;;;;;;5.10;4.70;;;28.50;1.00;;;;;;5102231;27;20496;-61
2021/06/06 11:01:43;;;;;;;5.37;4.90;;;28.30;1.00;;;;;;5104597;27;20644;-61
2021/06/06 11:04:19;;;;;;;5.37;4.87;;;28.10;1.00;;;;;;5108273;27;20193;-60
2021/06/06 11:06:48;;;;;;;4.87;4.47;;;27.90;1.00;;;;;;5109193;27;20458;-62
2021/06/06 11:09:31;;;;;;;5.37;4.87;;;28.00;1.00;;;;;;5083434;28;20440;-61
2021/06/06 11:12:05;;;;;;;5.33;4.93;;;28.20;1.00;;;;;;5107598;27;20414;-61
2021/06/06 11:14:39;;;;;;;7.13;6.53;;;28.00;1.00;;;;;;5109002;27;20433;-60
2021/06/06 11:17:34;;;;;;;5.33;4.90;;;28.00;1.00;;;;;;5107002;27;20447;-61
2021/06/06 11:20:17;;;;;;;6.33;5.67;;;28.00;1.00;;;;;;5111992;27;20478;-60
2021/06/06 11:22:48;;;;;;;4.80;4.50;;;28.20;1.00;;;;;;5104833;27;20442;-61
2021/06/06 11:25:38;;;;;;;5.77;5.30;;;28.20;1.00;;;;;;5104153;27;20426;-62
2021/06/06 11:28:23;;;;;;;5.70;5.20;;;28.50;1.00;;;;;;5101055;27;20471;-62
2021/06/06 11:30:52;;;;;;;5.00;4.63;;;28.40;1.00;;;;;;5102617;27;20419;-61
2021/06/06 11:33:43;;;;;;;5.13;4.67;;;28.50;1.00;;;;;;5112879;27;20419;-62
2021/06/06 11:36:10;;;;;;;5.00;4.60;;;28.50;1.00;;;;;;5107022;27;20418;-62
2021/06/06 11:38:53;;;;;;;4.87;4.10;;;28.40;1.00;;;;;;5105627;27;20493;-61
2021/06/06 11:41:22;;;;;;;4.23;3.93;;;28.10;1.00;;;;;;5103746;27;20501;-61
2021/06/06 11:43:58;;;;;;;5.90;5.30;;;28.00;1.00;;;;;;5110804;28;21046;-62
2021/06/06 11:46:32;;;;;;;4.70;4.17;;;28.00;1.00;;;;;;5101036;28;20528;-61
2021/06/06 11:49:22;;;;;;;4.60;4.20;;;28.40;1.00;;;;;;5090673;28;20439;-59
2021/06/06 11:51:50;;;;;;;4.63;4.23;;;28.50;1.00;;;;;;5107435;28;20443;-60
2021/06/06 11:54:29;;;;;;;4.33;4.03;;;28.30;1.00;;;;;;5094052;28;20522;-61
2021/06/06 11:56:59;;;;;;;3.80;3.50;;;28.40;1.00;;;;;;5108730;28;20411;-61
2021/06/06 11:59:35;;;;;;;6.13;3.97;;;28.50;1.00;;;;;;5109640;28;20447;-59
2021/06/06 12:02:11;;;;;;;4.10;3.70;;;28.90;1.00;;;;;;5112584;28;20436;-59
2021/06/06 12:04:39;;;;;;;4.73;4.00;;;29.00;1.00;;;;;;5106569;28;20440;-60
2021/06/06 12:07:16;;;;;;;4.83;3.73;;;29.20;1.00;;;;;;5112099;28;20913;-60
2021/06/06 12:09:44;;;;;;;4.80;4.20;;;29.20;1.00;;;;;;5103257;28;20449;-60
2021/06/06 12:12:33;;;;;;;5.23;4.80;;;29.00;1.00;;;;;;5089638;28;20933;-59
2021/06/06 12:15:18;;;;;;;3.90;3.70;;;28.90;1.00;;;;;;5107776;28;20767;-60
2021/06/06 12:17:44;;;;;;;3.80;3.50;;;28.70;1.00;;;;;;5105936;28;20440;-60
2021/06/06 12:20:17;;;;;;;4.47;4.07;;;28.80;1.00;;;;;;5107875;28;20410;-60
2021/06/06 12:22:43;;;;;;;4.80;3.90;;;28.70;1.00;;;;;;5108708;28;20424;-60
2021/06/06 12:25:28;;;;;;;4.27;3.97;;;28.50;1.00;;;;;;5103660;28;20583;-60
2021/06/06 12:28:03;;;;;;;3.93;3.63;;;28.50;1.00;;;;;;5089329;28;20195;-60
2021/06/06 12:30:51;;;;;;;5.70;3.67;;;28.90;1.00;;;;;;5089427;28;20438;-61
2021/06/06 12:33:25;;;;;;;4.00;3.70;;;29.20;1.00;;;;;;5110742;28;20477;-60
2021/06/06 12:35:54;;;;;;;4.43;3.70;;;29.10;1.00;;;;;;5111679;28;20929;-60
2021/06/06 12:38:23;;;;;;;3.67;3.30;;;29.00;1.00;;;;;;5111483;28;20414;-61
2021/06/06 12:40:49;;;;;;;4.40;4.10;;;28.80;1.00;;;;;;5110924;28;20443;-61
2021/06/06 12:43:18;;;;;;;4.43;4.13;;;28.60;1.00;;;;;;5091627;28;20446;-59
2021/06/06 12:45:46;;;;;;;4.43;4.13;;;28.60;1.00;;;;;;5108225;28;20560;-59
2021/06/06 12:48:33;;;;;;;3.53;3.20;;;28.20;1.00;;;;;;5110825;28;20425;-60
2021/06/06 12:51:00;;;;;;;4.03;3.73;;;28.30;1.00;;;;;;5109352;28;20794;-61
2021/06/06 12:53:34;;;;;;;3.50;3.30;;;28.50;1.00;;;;;;5110446;28;20440;-60
2021/06/06 12:56:07;;;;;;;4.70;4.40;;;28.50;1.00;;;;;;5107372;28;20432;-60
2021/06/06 12:58:36;;;;;;;4.90;4.50;;;28.30;1.00;;;;;;5090570;28;20479;-59
2021/06/06 13:01:28;;;;;;;4.00;3.70;;;28.40;1.00;;;;;;5089157;28;20474;-61
2021/06/06 13:03:55;;;;;;;4.53;4.13;;;28.20;1.00;;;;;;5107411;28;20448;-61